TimeEDT,TemperatureF,Dew PointF,Humidity,Sea Level PressureIn,VisibilityMPH,Wind Direction,Wind SpeedMPH,Gust SpeedMPH,PrecipitationIn,Events,Conditions,WindDirDegrees,DateUTC
12:52 AM,42.1,23.0,47,29.89,10.0,NW,8.1,-,N/A,,Clear,310,2013-04-06 04:52:00
1:52 AM,41.0,21.0,45,29.91,10.0,NW,6.9,-,N/A,,Clear,310,2013-04-06 05:52:00
2:52 AM,39.0,21.0,49,29.94,10.0,NW,8.1,-,N/A,,Clear,320,2013-04-06 06:52:00
3:52 AM,37.9,19.9,48,29.98,10.0,NW,6.9,-,N/A,,Partly Cloudy,310,2013-04-06 07:52:00
4:52 AM,37.0,17.1,44,30.02,10.0,NW,12.7,21.9,N/A,,Clear,310,2013-04-06 08:52:00
5:52 AM,36.0,15.1,43,30.06,10.0,NW,8.1,20.7,N/A,,Clear,320,2013-04-06 09:52:00
6:52 AM,35.1,12.9,40,30.09,10.0,NW,6.9,-,N/A,,Clear,310,2013-04-06 10:52:00
7:52 AM,37.0,12.9,37,30.13,10.0,NNW,9.2,21.9,N/A,,Mostly Cloudy,340,2013-04-06 11:52:00
8:52 AM,37.0,7.0,29,30.17,10.0,NW,18.4,27.6,N/A,,Clear,310,2013-04-06 12:52:00
9:52 AM,37.9,6.1,27,30.19,10.0,NW,11.5,20.7,N/A,,Clear,320,2013-04-06 13:52:00
10:52 AM,39.9,6.1,25,30.21,10.0,NW,12.7,20.7,N/A,,Clear,310,2013-04-06 14:52:00
11:52 AM,42.1,3.9,21,30.21,10.0,North,10.4,20.7,N/A,,Clear,350,2013-04-06 15:52:00
12:52 PM,44.1,1.9,17,30.22,10.0,WNW,11.5,20.7,N/A,,Clear,300,2013-04-06 16:52:00
1:52 PM,46.0,3.0,17,30.22,10.0,WNW,11.5,18.4,N/A,,Clear,300,2013-04-06 17:52:00
2:52 PM,48.0,3.0,16,30.22,10.0,NNW,9.2,20.7,N/A,,Clear,330,2013-04-06 18:52:00
3:52 PM,48.9,1.9,15,30.22,10.0,North,-9999.0,-,N/A,,Clear,0,2013-04-06 19:52:00
4:52 PM,48.0,1.0,14,30.23,10.0,NW,8.1,-,N/A,,Clear,320,2013-04-06 20:52:00
5:52 PM,48.0,-0.0,14,30.25,10.0,WNW,5.8,-,N/A,,Clear,290,2013-04-06 21:52:00
6:52 PM,46.0,-0.0,15,30.28,10.0,Variable,5.8,-,N/A,,Clear,0,2013-04-06 22:52:00
7:52 PM,41.0,16.0,36,30.30,10.0,SW,6.9,-,N/A,,Clear,230,2013-04-06 23:52:00
8:52 PM,37.9,19.0,47,30.33,10.0,SSE,3.5,-,N/A,,Clear,150,2013-04-07 00:52:00
9:52 PM,34.0,19.9,56,30.33,10.0,Calm,Calm,-,N/A,,Clear,0,2013-04-07 01:52:00
10:52 PM,30.0,21.9,72,30.34,10.0,Calm,Calm,-,N/A,,Clear,0,2013-04-07 02:52:00
11:52 PM,28.0,21.9,78,30.33,10.0,Calm,Calm,-,N/A,,Clear,0,2013-04-07 03:52:00